createdAt,value
2018-12-27T00:01:53.372Z,101880.00
2018-12-27T00:04:21.135Z,101877.00
2018-12-27T00:06:48.890Z,101870.00
2018-12-27T00:09:16.673Z,101874.00
2018-12-27T00:11:44.441Z,101871.00
2018-12-27T00:14:12.149Z,101865.00
2018-12-27T00:16:39.856Z,101878.00
2018-12-27T00:19:07.629Z,101872.00
2018-12-27T00:21:35.405Z,101863.00
2018-12-27T00:24:03.273Z,101861.00
2018-12-27T00:26:31.025Z,101870.00
2018-12-27T00:28:58.858Z,101865.00
2018-12-27T00:31:26.730Z,101855.00
2018-12-27T00:33:54.509Z,101860.00
2018-12-27T00:36:22.185Z,101865.00
2018-12-27T00:38:51.524Z,101858.00
2018-12-27T00:41:19.376Z,101862.00
2018-12-27T00:43:47.197Z,101857.00
2018-12-27T00:46:14.915Z,101852.00
2018-12-27T00:48:42.650Z,101856.00
2018-12-27T00:51:10.429Z,101860.00
2018-12-27T00:53:38.265Z,101857.00
2018-12-27T00:56:06.013Z,101861.00
2018-12-27T00:58:33.772Z,101862.00
2018-12-27T01:01:01.555Z,101856.00
2018-12-27T01:03:29.521Z,101850.00
2018-12-27T01:05:57.445Z,101847.00
2018-12-27T01:08:25.571Z,101850.00
2018-12-27T01:10:53.342Z,101859.00
2018-12-27T01:13:21.095Z,101842.00
2018-12-27T01:15:48.899Z,101841.00
2018-12-27T01:18:16.675Z,101841.00
2018-12-27T01:20:44.303Z,101848.00
2018-12-27T01:23:12.052Z,101846.00
2018-12-27T01:25:39.856Z,101852.00
2018-12-27T01:28:07.673Z,101849.00
2018-12-27T01:30:35.401Z,101854.00
2018-12-27T01:33:03.161Z,101850.00
2018-12-27T01:35:31.199Z,101854.00
2018-12-27T01:37:58.830Z,101852.00
2018-12-27T01:40:26.598Z,101853.00
2018-12-27T01:42:54.345Z,101848.00
2018-12-27T01:45:22.138Z,101845.00
2018-12-27T01:47:49.796Z,101845.00
2018-12-27T01:50:17.470Z,101841.00
2018-12-27T01:52:45.251Z,101842.00
2018-12-27T01:55:12.990Z,101831.00
2018-12-27T01:57:40.740Z,101852.00
2018-12-27T02:00:08.532Z,101845.00
2018-12-27T02:02:36.326Z,101847.00
2018-12-27T02:05:04.042Z,101836.00
2018-12-27T02:07:31.810Z,101841.00
2018-12-27T02:09:59.582Z,101834.00
2018-12-27T02:12:27.416Z,101833.00
2018-12-27T02:14:55.278Z,101840.00
2018-12-27T02:17:23.046Z,101843.00
2018-12-27T02:19:50.764Z,101845.00
2018-12-27T02:22:18.386Z,101836.00
2018-12-27T02:24:54.837Z,101839.00
2018-12-27T02:27:22.500Z,101836.00
2018-12-27T02:29:50.276Z,101825.00
2018-12-27T02:32:18.025Z,101830.00
2018-12-27T02:34:45.709Z,101824.00
2018-12-27T02:37:13.414Z,101822.00
2018-12-27T02:39:41.134Z,101829.00
2018-12-27T02:42:08.863Z,101824.00
2018-12-27T02:44:36.597Z,101823.00
2018-12-27T02:47:04.156Z,101827.00
2018-12-27T02:49:31.899Z,101816.00
2018-12-27T02:51:59.634Z,101814.00
2018-12-27T02:54:27.392Z,101807.00
2018-12-27T02:56:55.039Z,101802.00
2018-12-27T02:59:22.791Z,101810.00
2018-12-27T03:01:50.527Z,101796.00
2018-12-27T03:04:18.478Z,101798.00
2018-12-27T03:06:46.147Z,101797.00
2018-12-27T03:09:13.897Z,101786.00
2018-12-27T03:11:41.676Z,101791.00
2018-12-27T03:14:09.588Z,101779.00
2018-12-27T03:16:37.408Z,101778.00
2018-12-27T03:19:05.034Z,101773.00
2018-12-27T03:21:32.842Z,101768.00
2018-12-27T03:24:00.575Z,101766.00
2018-12-27T03:26:28.347Z,101762.00
2018-12-27T03:28:56.052Z,101761.00
2018-12-27T03:31:23.795Z,101754.00
2018-12-27T03:33:52.875Z,101757.00
2018-12-27T03:36:20.870Z,101755.00
2018-12-27T03:38:48.578Z,101751.00
2018-12-27T03:41:16.233Z,101746.00
2018-12-27T03:43:43.970Z,101742.00
2018-12-27T03:46:11.684Z,101740.00
2018-12-27T03:48:39.319Z,101749.00
2018-12-27T03:51:07.050Z,101744.00
2018-12-27T03:53:34.781Z,101744.00
2018-12-27T03:56:02.486Z,101735.00
2018-12-27T03:58:30.200Z,101736.00
2018-12-27T04:00:57.836Z,101734.00
2018-12-27T04:03:25.547Z,101729.00
2018-12-27T04:05:53.232Z,101731.00
2018-12-27T04:08:21.003Z,101727.00
2018-12-27T04:10:48.730Z,101732.00
2018-12-27T04:13:16.514Z,101728.00
2018-12-27T04:15:44.248Z,101735.00
2018-12-27T04:18:11.938Z,101740.00
2018-12-27T04:20:39.656Z,101737.00
2018-12-27T04:23:07.332Z,101743.00
2018-12-27T04:25:35.259Z,101740.00
2018-12-27T04:28:02.946Z,101740.00
2018-12-27T04:30:30.825Z,101737.00
2018-12-27T04:32:58.927Z,101732.00
2018-12-27T04:35:26.766Z,101728.00
2018-12-27T04:37:54.486Z,101736.00
2018-12-27T04:40:22.219Z,101732.00
2018-12-27T04:42:50.846Z,101727.00
2018-12-27T04:45:18.537Z,101730.00
2018-12-27T04:47:46.251Z,101728.00
2018-12-27T04:50:13.942Z,101734.00
2018-12-27T04:52:41.652Z,101734.00
2018-12-27T04:55:09.352Z,101726.00
2018-12-27T04:57:37.075Z,101727.00
2018-12-27T05:00:05.256Z,101726.00
2018-12-27T05:02:32.979Z,101733.00
2018-12-27T05:05:00.710Z,101729.00
2018-12-27T05:07:28.414Z,101724.00
2018-12-27T05:09:56.126Z,101712.00
2018-12-27T05:12:23.848Z,101714.00
2018-12-27T05:14:51.552Z,101716.00
2018-12-27T05:17:19.258Z,101728.00
2018-12-27T05:19:46.990Z,101723.00
2018-12-27T05:22:14.701Z,101725.00
2018-12-27T05:24:42.424Z,101724.00
2018-12-27T05:27:10.137Z,101716.00
2018-12-27T05:29:37.870Z,101720.00
2018-12-27T05:32:05.628Z,101724.00
2018-12-27T05:34:39.321Z,101493.00
2018-12-27T05:37:07.029Z,101727.00
2018-12-27T05:39:34.745Z,101727.00
2018-12-27T05:42:02.453Z,101733.00
2018-12-27T05:44:30.131Z,101724.00
2018-12-27T05:47:17.348Z,101716.00
2018-12-27T05:49:45.054Z,101724.00
2018-12-27T05:52:12.749Z,101720.00
2018-12-27T05:54:40.505Z,101711.00
2018-12-27T05:57:08.245Z,101713.00
2018-12-27T05:59:36.034Z,101708.00
2018-12-27T06:02:03.746Z,101708.00
2018-12-27T06:04:33.989Z,101700.00
2018-12-27T06:07:01.166Z,101701.00
2018-12-27T06:09:28.867Z,101710.00
2018-12-27T06:11:56.590Z,101709.00
2018-12-27T06:14:43.969Z,101690.00
2018-12-27T06:17:11.724Z,101696.00
2018-12-27T06:19:39.432Z,101695.00
2018-12-27T06:22:07.158Z,101691.00
2018-12-27T06:24:34.863Z,101690.00
2018-12-27T06:27:02.605Z,101683.00
2018-12-27T06:29:30.293Z,101690.00
2018-12-27T06:31:58.237Z,101697.00
2018-12-27T06:34:25.942Z,101696.00
2018-12-27T06:36:53.699Z,101682.00
2018-12-27T06:39:21.474Z,101687.00
2018-12-27T06:41:49.253Z,101686.00
2018-12-27T06:44:17.072Z,101679.00
2018-12-27T06:46:44.897Z,101684.00
2018-12-27T06:49:12.617Z,101690.00
2018-12-27T06:51:40.400Z,101696.00
2018-12-27T06:54:08.231Z,101690.00
2018-12-27T06:56:35.951Z,101695.00
2018-12-27T06:59:05.473Z,101699.00
2018-12-27T07:01:33.264Z,101703.00
2018-12-27T07:04:01.089Z,101701.00
2018-12-27T07:06:28.892Z,101705.00
2018-12-27T07:09:16.412Z,101490.00
2018-12-27T07:11:44.345Z,101703.00
2018-12-27T07:14:31.632Z,101706.00
2018-12-27T07:17:18.840Z,101310.00
2018-12-27T07:20:06.118Z,101839.00
2018-12-27T07:22:53.542Z,101485.00
2018-12-27T07:25:40.822Z,101702.00
2018-12-27T07:28:28.065Z,101756.00
2018-12-27T07:31:15.512Z,101715.00
2018-12-27T07:34:02.910Z,101467.00
2018-12-27T07:36:50.114Z,101704.00
2018-12-27T07:39:17.924Z,101700.00
2018-12-27T07:41:45.775Z,101704.00
2018-12-27T07:44:33.011Z,101703.00
2018-12-27T07:47:20.443Z,101537.00
2018-12-27T07:50:07.743Z,101516.00
2018-12-27T07:52:55.266Z,101605.00
2018-12-27T07:55:42.533Z,101705.00
2018-12-27T07:58:29.780Z,101401.00
2018-12-27T08:01:10.167Z,101723.00
2018-12-27T08:03:57.468Z,101720.00
2018-12-27T08:06:44.725Z,101719.00
2018-12-27T08:09:12.511Z,101722.00
2018-12-27T08:11:40.254Z,101724.00
2018-12-27T08:14:08.134Z,101726.00
2018-12-27T08:16:35.960Z,101729.00
2018-12-27T08:19:03.966Z,101723.00
2018-12-27T08:21:51.435Z,101563.00
2018-12-27T08:24:38.653Z,101563.00
2018-12-27T08:27:25.927Z,101560.00
2018-12-27T08:30:13.226Z,101501.00
2018-12-27T08:33:00.512Z,101532.00
2018-12-27T08:35:47.806Z,101418.00
2018-12-27T08:38:35.248Z,101718.00
2018-12-27T08:41:22.544Z,101784.00
2018-12-27T08:44:03.241Z,101510.00
2018-12-27T08:46:50.520Z,101724.00
2018-12-27T08:49:37.787Z,101540.00
2018-12-27T08:52:25.248Z,101723.00
2018-12-27T08:55:12.596Z,101727.00
2018-12-27T08:57:59.844Z,101864.00
2018-12-27T09:00:47.176Z,101750.00
2018-12-27T09:03:34.457Z,101726.00
2018-12-27T09:06:21.786Z,101531.00
2018-12-27T09:09:09.547Z,101729.00
2018-12-27T09:11:56.851Z,101360.00
2018-12-27T09:14:44.170Z,101729.00
2018-12-27T09:17:12.229Z,101726.00
2018-12-27T09:19:59.454Z,101554.00
2018-12-27T09:22:27.328Z,101718.00
2018-12-27T09:25:14.866Z,101739.00
2018-12-27T09:28:02.089Z,101437.00
2018-12-27T09:30:29.974Z,101708.00
2018-12-27T09:33:17.475Z,101548.00
2018-12-27T09:36:04.930Z,101457.00
2018-12-27T09:38:52.439Z,101710.00
2018-12-27T09:41:39.835Z,101643.00
2018-12-27T09:44:27.395Z,101809.00
2018-12-27T09:47:14.731Z,101307.00
2018-12-27T09:50:02.236Z,101701.00
2018-12-27T09:52:49.512Z,101475.00
2018-12-27T09:55:36.815Z,101698.00
2018-12-27T09:58:24.327Z,101698.00
2018-12-27T10:01:11.868Z,101804.00
2018-12-27T10:03:52.281Z,101409.00
2018-12-27T10:06:39.646Z,101488.00
2018-12-27T10:09:26.951Z,101686.00
2018-12-27T10:12:14.429Z,101423.00
2018-12-27T10:15:01.876Z,101681.00
2018-12-27T10:17:29.689Z,101687.00
2018-12-27T10:20:17.059Z,101756.00
2018-12-27T10:23:04.466Z,101679.00
2018-12-27T10:25:32.370Z,101673.00
2018-12-27T10:28:00.332Z,101679.00
2018-12-27T10:30:28.203Z,101680.00
2018-12-27T10:32:58.795Z,101669.00
2018-12-27T10:35:26.616Z,101667.00
2018-12-27T10:37:54.504Z,101663.00
2018-12-27T10:40:22.458Z,101657.00
2018-12-27T10:43:09.774Z,101660.00
2018-12-27T10:45:57.159Z,101382.00
2018-12-27T10:48:24.965Z,101650.00
2018-12-27T10:51:12.177Z,101345.00
2018-12-27T10:53:40.786Z,101649.00
2018-12-27T10:56:08.600Z,101634.00
2018-12-27T10:58:36.558Z,101645.00
2018-12-27T11:01:04.366Z,101640.00
2018-12-27T11:03:32.140Z,101638.00
2018-12-27T11:05:59.873Z,101632.00
2018-12-27T11:08:47.173Z,101630.00
2018-12-27T11:11:34.462Z,101320.00
2018-12-27T11:14:21.754Z,101352.00
2018-12-27T11:17:09.282Z,101222.00
2018-12-27T11:19:56.522Z,101603.00
2018-12-27T11:22:43.800Z,101596.00
2018-12-27T11:25:31.307Z,101426.00
2018-12-27T11:28:18.579Z,101664.00
2018-12-27T11:31:05.853Z,101579.00
2018-12-27T11:33:53.079Z,101689.00
2018-12-27T11:36:40.495Z,101343.00
2018-12-27T11:39:27.930Z,101304.00
2018-12-27T11:42:15.173Z,101303.00
2018-12-27T11:45:02.450Z,101563.00
2018-12-27T11:47:49.717Z,101563.00
2018-12-27T11:50:36.949Z,101300.00
2018-12-27T11:53:24.193Z,101366.00
2018-12-27T11:56:11.670Z,101568.00
2018-12-27T11:58:58.937Z,101561.00
2018-12-27T12:01:46.169Z,101316.00
2018-12-27T12:04:27.086Z,101562.00
2018-12-27T12:07:14.383Z,101556.00
2018-12-27T12:10:01.649Z,101650.00
2018-12-27T12:12:49.136Z,101547.00
2018-12-27T12:15:36.386Z,101605.00
2018-12-27T12:18:23.638Z,101300.00
2018-12-27T12:21:10.872Z,101532.00
2018-12-27T12:23:58.230Z,101211.00
2018-12-27T12:26:45.467Z,101211.00
2018-12-27T12:29:32.898Z,101526.00
2018-12-27T12:32:20.233Z,101525.00
2018-12-27T12:35:07.726Z,101528.00
2018-12-27T12:37:55.533Z,101388.00
2018-12-27T12:40:43.075Z,101524.00
2018-12-27T12:43:30.509Z,101164.00
2018-12-27T12:46:17.974Z,101250.00
2018-12-27T12:49:05.410Z,101569.00
2018-12-27T12:51:33.134Z,101521.00
2018-12-27T12:54:00.967Z,101522.00
2018-12-27T12:56:28.953Z,101521.00
2018-12-27T12:58:56.744Z,101500.00
2018-12-27T13:01:44.768Z,101510.00
2018-12-27T13:04:26.063Z,101514.00
2018-12-27T13:07:13.367Z,101520.00
2018-12-27T13:09:41.156Z,101519.00
2018-12-27T13:12:08.977Z,101518.00
2018-12-27T13:14:36.784Z,101518.00
2018-12-27T13:17:04.697Z,101515.00
2018-12-27T13:19:32.478Z,101510.00
2018-12-27T13:22:19.842Z,101220.00
2018-12-27T13:25:07.351Z,101320.00
2018-12-27T13:27:54.840Z,101256.00
2018-12-27T13:30:42.128Z,101506.00
2018-12-27T13:33:29.446Z,101505.00
2018-12-27T13:35:57.256Z,101503.00
2018-12-27T13:38:25.259Z,101494.00
2018-12-27T13:41:12.573Z,101492.00
2018-12-27T13:43:40.435Z,101500.00
2018-12-27T13:46:08.237Z,101498.00
2018-12-27T13:48:36.062Z,101494.00
2018-12-27T13:51:03.964Z,101491.00
2018-12-27T13:53:31.837Z,101494.00
2018-12-27T13:55:59.673Z,101490.00
2018-12-27T13:58:47.193Z,101487.00
2018-12-27T14:01:34.407Z,101492.00
2018-12-27T14:04:02.819Z,101487.00
2018-12-27T14:06:32.846Z,101491.00
2018-12-27T14:09:00.406Z,101499.00
2018-12-27T14:11:28.394Z,101495.00
2018-12-27T14:13:56.331Z,101490.00
2018-12-27T14:16:24.185Z,101491.00
2018-12-27T14:18:52.090Z,101500.00
2018-12-27T14:21:40.077Z,101374.00
2018-12-27T14:24:27.471Z,101497.00
2018-12-27T14:27:15.031Z,101216.00
2018-12-27T14:30:02.621Z,101490.00
2018-12-27T14:32:49.978Z,101178.00
2018-12-27T14:35:37.429Z,101501.00
2018-12-27T14:38:24.682Z,101240.00
2018-12-27T14:41:11.979Z,101333.00
2018-12-27T14:43:59.540Z,101488.00
2018-12-27T14:46:27.565Z,101437.00
2018-12-27T14:48:55.480Z,101487.00
2018-12-27T14:51:42.797Z,101222.00
2018-12-27T14:54:10.675Z,101496.00
2018-12-27T14:59:53.501Z,101502.00
2018-12-27T15:02:21.808Z,101500.00
2018-12-27T15:05:09.721Z,101509.00
2018-12-27T15:07:38.834Z,101500.00
2018-12-27T15:10:26.596Z,101290.00
2018-12-27T15:13:14.132Z,101498.00
2018-12-27T15:16:01.988Z,101490.00
2018-12-27T15:18:49.581Z,101278.00
2018-12-27T15:21:17.386Z,101498.00
2018-12-27T15:24:04.966Z,101331.00
2018-12-27T15:26:52.506Z,101411.00
2018-12-27T15:29:39.948Z,101473.00
2018-12-27T15:32:27.512Z,101641.00
2018-12-27T15:35:15.235Z,101493.00
2018-12-27T15:38:02.944Z,101500.00
2018-12-27T15:40:50.259Z,101264.00
2018-12-27T15:43:37.697Z,101489.00
2018-12-27T15:46:25.339Z,101249.00
2018-12-27T15:49:05.984Z,101269.00
2018-12-27T15:51:53.502Z,101398.00
2018-12-27T15:54:41.138Z,101505.00
2018-12-27T15:59:49.610Z,101500.00
2018-12-27T16:02:36.944Z,101600.00
2018-12-27T16:05:05.349Z,101500.00
2018-12-27T16:07:53.329Z,101508.00
2018-12-27T16:10:41.112Z,101520.00
2018-12-27T16:13:28.942Z,101587.00
2018-12-27T16:16:17.987Z,101515.00
2018-12-27T16:19:05.623Z,101470.00
2018-12-27T16:21:53.288Z,101490.00
2018-12-27T16:24:40.830Z,101593.00
2018-12-27T16:27:28.507Z,101634.00
2018-12-27T16:30:15.883Z,101516.00
2018-12-27T16:33:03.227Z,101385.00
2018-12-27T16:35:50.857Z,101502.00
2018-12-27T16:38:38.361Z,101284.00
2018-12-27T16:41:25.739Z,101498.00
2018-12-27T16:44:13.066Z,101364.00
2018-12-27T16:47:00.349Z,101145.00
2018-12-27T16:49:41.196Z,101413.00
2018-12-27T16:52:28.691Z,101235.00
2018-12-27T16:55:16.396Z,101234.00
2018-12-27T16:58:03.664Z,101484.00
2018-12-27T17:00:51.441Z,101490.00
2018-12-27T17:03:19.303Z,101493.00
2018-12-27T17:06:06.589Z,101485.00
2018-12-27T17:08:54.086Z,101496.00
2018-12-27T17:11:22.202Z,101494.00
2018-12-27T17:13:50.123Z,101473.00
2018-12-27T17:16:37.686Z,101495.00
2018-12-27T17:19:25.238Z,101497.00
2018-12-27T17:21:53.116Z,101501.00
2018-12-27T17:24:21.112Z,101497.00
2018-12-27T17:27:08.380Z,101207.00
2018-12-27T17:29:55.976Z,101290.00
2018-12-27T17:32:43.221Z,101494.00
2018-12-27T17:35:30.772Z,101223.00
2018-12-27T17:38:18.044Z,101164.00
2018-12-27T17:40:45.885Z,101487.00
2018-12-27T17:43:13.723Z,101482.00
2018-12-27T17:48:43.846Z,101479.00
2018-12-27T17:51:11.657Z,101481.00
2018-12-27T17:53:59.408Z,101197.00
2018-12-27T17:56:47.162Z,101490.00
2018-12-27T17:59:16.840Z,101514.00
2018-12-27T18:01:44.790Z,101493.00
2018-12-27T18:04:12.632Z,101496.00
2018-12-27T18:06:40.542Z,101490.00
2018-12-27T18:09:27.963Z,101203.00
2018-12-27T18:11:55.790Z,101502.00
2018-12-27T18:14:43.299Z,101503.00
2018-12-27T18:17:30.716Z,101494.00
2018-12-27T18:20:18.317Z,101516.00
2018-12-27T18:23:06.027Z,101507.00
2018-12-27T18:25:53.387Z,101292.00
2018-12-27T18:28:21.354Z,101506.00
2018-12-27T18:31:09.062Z,101271.00
2018-12-27T18:33:56.356Z,101511.00
2018-12-27T18:36:24.234Z,101496.00
2018-12-27T18:38:52.115Z,101491.00
2018-12-27T18:41:19.944Z,101501.00
2018-12-27T18:44:07.485Z,101285.00
2018-12-27T18:46:54.965Z,101585.00
2018-12-27T18:49:35.909Z,101495.00
2018-12-27T18:52:23.389Z,101326.00
2018-12-27T18:55:10.769Z,101267.00
2018-12-27T18:57:58.319Z,101512.00
2018-12-27T19:00:45.883Z,101414.00
2018-12-27T19:03:33.474Z,101312.00
2018-12-27T19:06:01.565Z,101530.00
2018-12-27T19:08:48.977Z,101519.00
2018-12-27T19:12:15.948Z,101513.00
2018-12-27T19:15:07.217Z,101530.00
2018-12-27T19:17:59.499Z,101516.00
2018-12-27T19:20:55.757Z,101534.00
2018-12-27T19:23:43.123Z,101576.00
2018-12-27T19:26:30.691Z,101527.00
2018-12-27T19:29:18.261Z,101373.00
2018-12-27T19:32:05.922Z,101336.00
2018-12-27T19:34:33.766Z,101507.00
2018-12-27T19:37:01.645Z,101514.00
2018-12-27T19:39:49.001Z,101526.00
2018-12-27T19:42:36.642Z,101536.00
2018-12-27T19:45:04.644Z,101535.00
2018-12-27T19:47:32.667Z,101545.00
2018-12-27T19:50:20.211Z,101333.00
2018-12-27T19:53:08.109Z,101243.00
2018-12-27T19:55:55.943Z,101525.00
2018-12-27T19:58:43.474Z,101554.00
2018-12-27T20:01:31.047Z,101328.00
2018-12-27T20:04:18.471Z,101322.00
2018-12-27T20:07:05.764Z,101525.00
2018-12-27T20:09:53.128Z,101647.00
2018-12-27T20:12:40.589Z,101662.00
2018-12-27T20:15:27.965Z,101393.00
2018-12-27T20:18:15.338Z,101524.00
2018-12-27T20:21:03.127Z,101275.00
2018-12-27T20:23:50.699Z,101384.00
2018-12-27T20:26:38.079Z,101267.00
2018-12-27T20:29:06.147Z,101525.00
2018-12-27T20:31:53.608Z,101525.00
2018-12-27T20:34:41.287Z,101530.00
2018-12-27T20:37:30.451Z,101538.00
2018-12-27T20:39:58.503Z,101537.00
2018-12-27T20:42:45.908Z,101544.00
2018-12-27T20:45:14.033Z,101525.00
2018-12-27T20:47:58.594Z,101594.00
2018-12-27T20:50:38.934Z,101359.00
2018-12-27T20:53:26.443Z,101295.00
2018-12-27T20:55:54.628Z,101515.00
2018-12-27T20:58:42.051Z,101584.00
2018-12-27T21:01:29.676Z,101529.00
2018-12-27T21:04:17.247Z,101529.00
2018-12-27T21:06:57.988Z,101539.00
2018-12-27T21:09:47.081Z,101349.00
2018-12-27T21:12:15.172Z,101531.00
2018-12-27T21:14:43.275Z,101543.00
2018-12-27T21:17:11.226Z,101532.00
2018-12-27T21:19:58.965Z,101210.00
2018-12-27T21:22:27.084Z,101545.00
2018-12-27T21:25:14.597Z,101536.00
2018-12-27T21:28:01.959Z,101191.00
2018-12-27T21:30:49.471Z,101545.00
2018-12-27T21:33:36.901Z,101457.00
2018-12-27T21:36:24.301Z,101553.00
2018-12-27T21:39:11.861Z,101233.00
2018-12-27T21:41:39.759Z,101548.00
2018-12-27T21:44:07.797Z,101557.00
2018-12-27T21:46:35.766Z,101549.00
2018-12-27T21:49:23.186Z,101560.00
2018-12-27T21:51:53.015Z,101557.00
2018-12-27T21:54:20.964Z,101562.00
2018-12-27T21:57:08.390Z,101419.00
2018-12-27T21:59:37.647Z,101546.00
2018-12-27T22:02:45.190Z,101297.00
2018-12-27T22:05:32.591Z,101535.00
2018-12-27T22:08:20.027Z,101542.00
2018-12-27T22:11:07.335Z,101532.00
2018-12-27T22:13:35.746Z,101535.00
2018-12-27T22:16:03.642Z,101543.00
2018-12-27T22:18:50.965Z,101536.00
2018-12-27T22:21:18.901Z,101529.00
2018-12-27T22:23:46.822Z,101514.00
2018-12-27T22:26:34.168Z,101530.00
2018-12-27T22:29:21.487Z,101496.00
2018-12-27T22:31:50.950Z,101486.00
2018-12-27T22:34:18.867Z,101482.00
2018-12-27T22:36:46.760Z,101473.00
2018-12-27T22:39:34.169Z,101301.00
2018-12-27T22:42:02.001Z,101490.00
2018-12-27T22:44:49.582Z,101503.00
2018-12-27T22:47:36.971Z,101270.00
2018-12-27T22:50:24.263Z,101477.00
2018-12-27T22:53:11.809Z,101190.00
2018-12-27T22:55:59.375Z,101501.00
2018-12-27T22:58:46.810Z,101491.00
2018-12-27T23:01:27.567Z,101493.00
2018-12-27T23:04:14.926Z,101486.00
2018-12-27T23:07:02.647Z,101289.00
2018-12-27T23:09:50.002Z,101494.00
2018-12-27T23:12:37.353Z,101465.00
2018-12-27T23:15:24.703Z,101492.00
2018-12-27T23:18:12.012Z,101327.00
2018-12-27T23:20:42.242Z,101495.00
2018-12-27T23:23:29.624Z,101398.00
2018-12-27T23:25:57.717Z,101490.00
2018-12-27T23:28:25.573Z,101487.00
2018-12-27T23:30:53.625Z,101481.00
2018-12-27T23:33:41.191Z,101475.00
2018-12-27T23:36:28.808Z,101533.00
2018-12-27T23:38:56.748Z,101457.00
2018-12-27T23:41:44.493Z,101486.00
2018-12-27T23:44:31.844Z,101508.00
2018-12-27T23:47:19.202Z,101492.00
2018-12-27T23:49:59.787Z,101251.00
2018-12-27T23:52:47.607Z,101485.00
2018-12-27T23:55:35.027Z,101494.00
2018-12-27T23:58:22.492Z,101549.00
